createdAt,value
2023-05-21T00:00:38.349Z,8.70
2023-05-21T00:01:38.356Z,8.50
2023-05-21T00:02:38.451Z,9.20
2023-05-21T00:03:38.373Z,9.60
2023-05-21T00:04:38.315Z,9.40
2023-05-21T00:05:38.639Z,8.10
2023-05-21T00:06:38.316Z,10.00
2023-05-21T00:07:38.295Z,11.60
2023-05-21T00:08:38.264Z,10.40
2023-05-21T00:09:38.301Z,8.40
2023-05-21T00:10:38.253Z,9.60
2023-05-21T00:11:38.260Z,9.00
2023-05-21T00:12:38.219Z,10.60
2023-05-21T00:13:38.251Z,9.30
2023-05-21T00:14:38.199Z,8.40
2023-05-21T00:15:38.341Z,7.60
2023-05-21T00:16:38.334Z,8.60
2023-05-21T00:17:38.237Z,9.40
2023-05-21T00:18:38.156Z,8.80
2023-05-21T00:19:38.170Z,9.70
2023-05-21T00:20:38.140Z,8.10
2023-05-21T00:21:38.174Z,9.50
2023-05-21T00:22:38.133Z,10.50
2023-05-21T00:23:38.121Z,8.50
2023-05-21T00:24:38.102Z,10.30
2023-05-21T00:25:38.101Z,10.10
2023-05-21T00:26:38.067Z,11.20
2023-05-21T00:27:38.095Z,10.50
2023-05-21T00:28:38.051Z,9.90
2023-05-21T00:29:38.050Z,9.70
2023-05-21T00:30:38.031Z,10.60
2023-05-21T00:31:38.099Z,9.10
2023-05-21T00:32:38.043Z,8.40
2023-05-21T00:33:38.005Z,8.60
2023-05-21T00:34:37.984Z,9.30
2023-05-21T00:35:38.071Z,11.10
2023-05-21T00:36:37.956Z,10.20
2023-05-21T00:37:37.961Z,9.00
2023-05-21T00:38:37.939Z,15.20
2023-05-21T00:39:37.938Z,8.80
2023-05-21T00:40:37.923Z,10.30
2023-05-21T00:41:37.917Z,10.70
2023-05-21T00:42:37.900Z,9.80
2023-05-21T00:43:37.909Z,8.20
2023-05-21T00:44:37.871Z,9.90
2023-05-21T00:45:38.314Z,9.60
2023-05-21T00:46:37.848Z,11.30
2023-05-21T00:47:37.897Z,11.30
2023-05-21T00:48:37.828Z,8.00
2023-05-21T00:49:37.844Z,7.60
2023-05-21T00:50:37.799Z,9.20
2023-05-21T00:51:37.828Z,12.00
2023-05-21T00:52:37.781Z,8.30
2023-05-21T00:53:37.810Z,9.40
2023-05-21T00:54:37.758Z,10.40
2023-05-21T00:55:38.227Z,9.40
2023-05-21T00:56:37.736Z,9.80
2023-05-21T00:57:37.774Z,10.40
2023-05-21T00:58:37.719Z,10.30
2023-05-21T00:59:37.742Z,10.40
2023-05-21T01:00:37.712Z,11.50
2023-05-21T01:01:37.753Z,10.30
2023-05-21T01:02:37.773Z,9.40
2023-05-21T01:03:37.687Z,10.80
2023-05-21T01:04:37.657Z,10.90
2023-05-21T01:05:37.967Z,9.80
2023-05-21T01:06:37.631Z,9.60
2023-05-21T01:07:37.645Z,8.50
2023-05-21T01:08:37.626Z,11.10
2023-05-21T01:09:37.621Z,17.90
2023-05-21T01:10:37.582Z,11.60
2023-05-21T01:11:37.591Z,12.20
2023-05-21T01:12:37.567Z,12.20
2023-05-21T01:13:37.593Z,10.00
2023-05-21T01:14:37.571Z,8.80
2023-05-21T01:15:37.767Z,9.90
2023-05-21T01:16:37.608Z,9.30
2023-05-21T01:17:37.564Z,10.70
2023-05-21T01:18:37.763Z,9.80
2023-05-21T01:19:37.587Z,11.00
2023-05-21T01:20:37.480Z,9.10
2023-05-21T01:21:42.596Z,10.30
2023-05-21T01:22:37.457Z,10.00
2023-05-21T01:23:37.483Z,9.20
2023-05-21T01:24:37.426Z,10.90
2023-05-21T01:25:37.792Z,9.40
2023-05-21T01:26:37.408Z,10.80
2023-05-21T01:27:37.414Z,9.90
2023-05-21T01:28:37.403Z,8.80
2023-05-21T01:29:37.400Z,10.90
2023-05-21T01:30:37.369Z,9.30
2023-05-21T01:31:37.390Z,10.30
2023-05-21T01:32:37.434Z,9.70
2023-05-21T01:33:37.397Z,10.00
2023-05-21T01:34:37.315Z,10.00
2023-05-21T01:35:37.663Z,12.60
2023-05-21T01:36:37.312Z,11.70
2023-05-21T01:37:37.311Z,10.10
2023-05-21T01:38:37.278Z,10.00
2023-05-21T01:39:37.322Z,14.50
2023-05-21T01:40:37.314Z,10.90
2023-05-21T01:41:37.269Z,11.90
2023-05-21T01:42:37.252Z,10.00
2023-05-21T01:43:37.252Z,8.80
2023-05-21T01:44:37.222Z,10.30
2023-05-21T01:45:37.359Z,10.50
2023-05-21T01:46:37.235Z,10.10
2023-05-21T01:47:37.238Z,9.40
2023-05-21T01:48:37.181Z,10.10
2023-05-21T01:49:37.181Z,9.20
2023-05-21T01:50:37.186Z,11.50
2023-05-21T01:51:37.167Z,13.70
2023-05-21T01:52:37.140Z,11.60
2023-05-21T01:53:37.157Z,13.20
2023-05-21T01:54:37.110Z,13.80
2023-05-21T01:55:37.412Z,11.10
2023-05-21T01:56:37.103Z,12.30
2023-05-21T01:57:37.112Z,12.10
2023-05-21T01:58:37.066Z,10.50
2023-05-21T01:59:37.080Z,11.70
2023-05-21T02:00:37.050Z,11.90
2023-05-21T02:01:37.095Z,9.90
2023-05-21T02:02:37.138Z,12.10
2023-05-21T02:03:37.224Z,12.60
2023-05-21T02:04:37.003Z,11.10
2023-05-21T02:05:37.295Z,13.70
2023-05-21T02:06:36.985Z,9.40
2023-05-21T02:07:36.988Z,9.40
2023-05-21T02:08:36.973Z,9.10
2023-05-21T02:09:36.978Z,9.80
2023-05-21T02:10:36.957Z,11.30
2023-05-21T02:11:36.946Z,10.60
2023-05-21T02:12:36.918Z,8.50
2023-05-21T02:13:36.940Z,8.80
2023-05-21T02:14:36.896Z,11.90
2023-05-21T02:15:37.079Z,10.20
2023-05-21T02:16:36.963Z,9.20
2023-05-21T02:17:36.935Z,13.00
2023-05-21T02:18:36.866Z,10.90
2023-05-21T02:19:36.950Z,12.90
2023-05-21T02:20:36.838Z,11.10
2023-05-21T02:21:36.836Z,12.10
2023-05-21T02:22:36.823Z,9.30
2023-05-21T02:23:36.828Z,10.10
2023-05-21T02:24:36.788Z,10.30
2023-05-21T02:25:37.105Z,9.00
2023-05-21T02:26:36.759Z,10.80
2023-05-21T02:27:36.822Z,9.40
2023-05-21T02:28:36.743Z,11.80
2023-05-21T02:29:36.750Z,9.90
2023-05-21T02:30:36.720Z,11.80
2023-05-21T02:31:36.731Z,10.10
2023-05-21T02:32:36.795Z,11.20
2023-05-21T02:33:36.770Z,10.80
2023-05-21T02:34:36.683Z,8.90
2023-05-21T02:35:37.031Z,10.70
2023-05-21T02:36:36.655Z,9.60
2023-05-21T02:37:36.659Z,10.50
2023-05-21T02:38:36.636Z,13.20
2023-05-21T02:39:36.655Z,10.90
2023-05-21T02:40:36.612Z,9.50
2023-05-21T02:41:36.620Z,10.30
2023-05-21T02:42:36.592Z,11.10
2023-05-21T02:43:36.624Z,10.10
2023-05-21T02:44:36.576Z,12.40
2023-05-21T02:45:36.777Z,10.90
2023-05-21T02:46:36.545Z,10.50
2023-05-21T02:47:36.591Z,9.60
2023-05-21T02:48:36.540Z,12.60
2023-05-21T02:49:36.525Z,12.60
2023-05-21T02:50:36.541Z,9.70
2023-05-21T02:51:36.496Z,11.10
2023-05-21T02:52:36.500Z,11.80
2023-05-21T02:53:36.472Z,10.80
2023-05-21T02:54:36.501Z,11.40
2023-05-21T02:55:36.776Z,12.00
2023-05-21T02:56:36.452Z,10.40
2023-05-21T02:57:36.429Z,11.70
2023-05-21T02:58:36.381Z,9.30
2023-05-21T02:59:36.412Z,11.40
2023-05-21T03:00:36.424Z,11.70
2023-05-21T03:01:36.396Z,11.20
2023-05-21T03:02:36.407Z,13.00
2023-05-21T03:03:36.403Z,11.70
2023-05-21T03:04:36.378Z,11.00
2023-05-21T03:05:36.557Z,10.70
2023-05-21T03:06:36.315Z,11.00
2023-05-21T03:07:36.266Z,11.80
2023-05-21T03:08:36.298Z,9.50
2023-05-21T03:09:36.296Z,10.10
2023-05-21T03:10:36.259Z,11.90
2023-05-21T03:11:36.240Z,10.60
2023-05-21T03:12:36.227Z,8.40
2023-05-21T03:13:36.294Z,9.60
2023-05-21T03:14:36.217Z,10.30
2023-05-21T03:15:36.337Z,11.50
2023-05-21T03:16:36.243Z,10.40
2023-05-21T03:17:36.230Z,11.70
2023-05-21T03:18:36.166Z,12.00
2023-05-21T03:19:36.137Z,12.80
2023-05-21T03:20:36.148Z,10.40
2023-05-21T03:21:36.125Z,11.20
2023-05-21T03:22:36.143Z,11.30
2023-05-21T03:23:36.092Z,12.10
2023-05-21T03:24:36.114Z,10.40
2023-05-21T03:25:36.322Z,10.60
2023-05-21T03:26:36.095Z,11.60
2023-05-21T03:27:36.071Z,10.10
2023-05-21T03:28:36.074Z,10.00
2023-05-21T03:29:36.034Z,11.70
2023-05-21T03:30:36.052Z,11.40
2023-05-21T03:31:36.045Z,8.50
2023-05-21T03:32:36.066Z,11.90
2023-05-21T03:33:35.997Z,12.00
2023-05-21T03:34:36.007Z,11.20
2023-05-21T03:35:36.073Z,10.80
2023-05-21T03:36:35.965Z,13.90
2023-05-21T03:37:35.963Z,10.80
2023-05-21T03:38:37.158Z,9.30
2023-05-21T03:39:35.925Z,14.00
2023-05-21T03:40:35.945Z,10.90
2023-05-21T03:41:35.913Z,11.20
2023-05-21T03:42:35.907Z,12.80
2023-05-21T03:43:35.876Z,12.50
2023-05-21T03:44:35.898Z,11.50
2023-05-21T03:45:36.103Z,12.30
2023-05-21T03:46:35.992Z,10.20
2023-05-21T03:47:35.877Z,10.90
2023-05-21T03:48:35.842Z,12.90
2023-05-21T03:49:35.830Z,13.60
2023-05-21T03:50:35.837Z,12.10
2023-05-21T03:51:35.801Z,11.10
2023-05-21T03:52:35.836Z,12.20
2023-05-21T03:53:35.774Z,11.70
2023-05-21T03:54:35.799Z,10.30
2023-05-21T03:55:35.932Z,10.90
2023-05-21T03:56:35.776Z,13.10
2023-05-21T03:57:35.735Z,11.50
2023-05-21T03:58:35.767Z,11.20
2023-05-21T03:59:35.706Z,10.90
2023-05-21T04:00:35.748Z,10.90
2023-05-21T04:01:35.688Z,12.30
2023-05-21T04:02:35.779Z,10.20
2023-05-21T04:03:37.887Z,9.80
2023-05-21T04:04:35.747Z,11.40
2023-05-21T04:05:35.847Z,11.40
2023-05-21T04:06:35.681Z,14.30
2023-05-21T04:07:35.634Z,10.10
2023-05-21T04:08:35.643Z,10.90
2023-05-21T04:09:36.694Z,11.10
2023-05-21T04:10:35.621Z,12.30
2023-05-21T04:11:35.578Z,10.90
2023-05-21T04:12:35.600Z,12.30
2023-05-21T04:13:35.567Z,11.50
2023-05-21T04:14:35.579Z,12.50
2023-05-21T04:15:35.906Z,12.10
2023-05-21T04:16:35.652Z,10.40
2023-05-21T04:17:35.562Z,10.70
2023-05-21T04:18:35.553Z,10.60
2023-05-21T04:19:35.567Z,11.30
2023-05-21T04:20:35.497Z,13.40
2023-05-21T04:21:35.472Z,12.80
2023-05-21T04:22:35.509Z,12.50
2023-05-21T04:23:35.452Z,11.00
2023-05-21T04:24:35.469Z,10.10
2023-05-21T04:25:35.624Z,11.30
2023-05-21T04:26:35.439Z,10.40
2023-05-21T04:27:35.425Z,10.60
2023-05-21T04:28:35.476Z,14.70
2023-05-21T04:29:35.389Z,13.10
2023-05-21T04:30:35.409Z,12.00
2023-05-21T04:31:35.429Z,10.90
2023-05-21T04:32:35.383Z,10.80
2023-05-21T04:33:35.354Z,11.40
2023-05-21T04:34:35.393Z,10.70
2023-05-21T04:35:35.659Z,10.70
2023-05-21T04:36:35.339Z,11.50
2023-05-21T04:37:35.402Z,10.80
2023-05-21T04:38:35.343Z,9.80
2023-05-21T04:39:35.280Z,10.30
2023-05-21T04:40:36.697Z,12.10
2023-05-21T04:41:35.254Z,12.20
2023-05-21T04:42:35.278Z,12.50
2023-05-21T04:43:35.232Z,11.60
2023-05-21T04:44:35.280Z,12.10
2023-05-21T04:45:35.513Z,12.30
2023-05-21T04:46:35.275Z,12.30
2023-05-21T04:47:35.288Z,11.00
2023-05-21T04:48:35.224Z,9.70
2023-05-21T04:49:35.181Z,12.30
2023-05-21T04:50:35.190Z,10.50
2023-05-21T04:51:35.161Z,11.40
2023-05-21T04:52:35.181Z,9.60
2023-05-21T04:53:35.127Z,11.20
2023-05-21T04:54:35.163Z,14.60
2023-05-21T04:55:35.294Z,14.90
2023-05-21T04:56:35.112Z,12.10
2023-05-21T04:57:35.081Z,11.90
2023-05-21T04:58:35.092Z,12.80
2023-05-21T04:59:35.297Z,11.20
2023-05-21T05:00:35.396Z,11.70
2023-05-21T05:01:35.152Z,10.50
2023-05-21T05:02:35.104Z,12.30
2023-05-21T05:03:35.097Z,10.70
2023-05-21T05:04:35.039Z,12.40
2023-05-21T05:05:35.374Z,12.60
2023-05-21T05:06:35.046Z,10.00
2023-05-21T05:07:35.020Z,10.80
2023-05-21T05:08:35.007Z,10.90
2023-05-21T05:09:34.985Z,10.30
2023-05-21T05:10:35.005Z,11.10
2023-05-21T05:11:34.952Z,10.80
2023-05-21T05:12:34.960Z,10.80
2023-05-21T05:13:34.913Z,11.40
2023-05-21T05:14:34.940Z,11.20
2023-05-21T05:15:35.001Z,11.40
2023-05-21T05:16:34.944Z,13.10
2023-05-21T05:17:34.914Z,11.20
2023-05-21T05:18:34.891Z,10.80
2023-05-21T05:19:34.945Z,12.90
2023-05-21T05:20:34.877Z,11.70
2023-05-21T05:21:34.842Z,12.60
2023-05-21T05:22:34.838Z,11.20
2023-05-21T05:23:34.802Z,9.50
2023-05-21T05:24:34.808Z,11.40
2023-05-21T05:25:34.905Z,12.20
2023-05-21T05:26:34.805Z,11.10
2023-05-21T05:27:36.422Z,11.80
2023-05-21T05:28:34.804Z,9.40
2023-05-21T05:29:34.739Z,11.40
2023-05-21T05:30:34.771Z,12.30
2023-05-21T05:31:34.775Z,11.30
2023-05-21T05:32:34.738Z,10.70
2023-05-21T05:33:34.704Z,14.20
2023-05-21T05:34:34.714Z,12.80
2023-05-21T05:35:34.860Z,11.30
2023-05-21T05:36:34.680Z,10.90
2023-05-21T05:37:34.662Z,11.30
2023-05-21T05:38:34.661Z,10.00
2023-05-21T05:39:34.642Z,11.10
2023-05-21T05:40:34.639Z,11.20
2023-05-21T05:41:34.608Z,9.60
2023-05-21T05:42:34.614Z,11.20
2023-05-21T05:43:34.592Z,10.30
2023-05-21T05:44:34.601Z,9.40
2023-05-21T05:45:34.772Z,11.10
2023-05-21T05:46:34.686Z,11.50
2023-05-21T05:47:34.622Z,10.60
2023-05-21T05:48:34.566Z,9.20
2023-05-21T05:49:34.536Z,12.30
2023-05-21T05:50:34.533Z,11.60
2023-05-21T05:51:34.490Z,11.50
2023-05-21T05:52:34.517Z,10.80
2023-05-21T05:53:34.477Z,10.40
2023-05-21T05:54:34.497Z,10.70
2023-05-21T05:55:34.868Z,11.30
2023-05-21T05:56:34.468Z,11.60
2023-05-21T05:57:34.425Z,11.20
2023-05-21T05:58:34.454Z,11.40
2023-05-21T05:59:34.408Z,13.40
2023-05-21T06:00:34.418Z,11.10
2023-05-21T06:01:34.434Z,11.80
2023-05-21T06:02:34.502Z,11.50
2023-05-21T06:03:34.523Z,10.40
2023-05-21T06:04:34.369Z,14.60
2023-05-21T06:05:34.515Z,11.80
2023-05-21T06:06:34.350Z,13.50
2023-05-21T06:07:34.318Z,10.80
2023-05-21T06:08:36.036Z,11.10
2023-05-21T06:09:34.291Z,10.50
2023-05-21T06:10:34.327Z,10.00
2023-05-21T06:11:34.290Z,10.20
2023-05-21T06:12:34.303Z,10.30
2023-05-21T06:13:34.275Z,8.80
2023-05-21T06:14:34.257Z,11.70
2023-05-21T06:15:34.313Z,12.70
2023-05-21T06:16:34.386Z,11.20
2023-05-21T06:17:34.231Z,11.10
2023-05-21T06:18:34.224Z,10.50
2023-05-21T06:19:34.279Z,11.50
2023-05-21T06:20:34.202Z,11.10
2023-05-21T06:21:34.184Z,11.50
2023-05-21T06:22:34.187Z,10.60
2023-05-21T06:23:34.163Z,9.90
2023-05-21T06:24:34.152Z,10.80
2023-05-21T06:25:34.245Z,10.70
2023-05-21T06:26:34.145Z,10.50
2023-05-21T06:27:34.119Z,11.20
2023-05-21T06:28:34.122Z,10.80
2023-05-21T06:29:34.096Z,10.60
2023-05-21T06:30:34.107Z,11.50
2023-05-21T06:31:34.063Z,11.40
2023-05-21T06:32:34.206Z,12.00
2023-05-21T06:33:34.151Z,10.40
2023-05-21T06:34:34.057Z,10.30
2023-05-21T06:35:34.165Z,10.40
2023-05-21T06:36:34.032Z,11.80
2023-05-21T06:37:34.005Z,10.70
2023-05-21T06:38:33.998Z,9.90
2023-05-21T06:39:33.988Z,9.50
2023-05-21T06:40:33.993Z,9.00
2023-05-21T06:41:33.950Z,10.50
2023-05-21T06:42:33.980Z,11.50
2023-05-21T06:43:33.928Z,11.70
2023-05-21T06:44:33.947Z,9.10
2023-05-21T06:45:33.972Z,10.60
2023-05-21T06:46:34.059Z,10.00
2023-05-21T06:47:33.909Z,12.40
2023-05-21T06:48:33.908Z,8.90
2023-05-21T06:49:33.865Z,9.30
2023-05-21T06:50:33.865Z,9.00
2023-05-21T06:51:33.849Z,8.90
2023-05-21T06:52:33.870Z,11.40
2023-05-21T06:53:33.814Z,10.50
2023-05-21T06:54:33.840Z,11.30
2023-05-21T06:55:33.858Z,10.50
2023-05-21T06:56:33.816Z,10.00
2023-05-21T06:57:33.777Z,12.00
2023-05-21T06:58:33.801Z,10.90
2023-05-21T06:59:33.747Z,10.50
2023-05-21T07:00:33.790Z,10.40
2023-05-21T07:01:33.769Z,11.10
2023-05-21T07:02:33.811Z,10.90
2023-05-21T07:03:33.741Z,10.70
2023-05-21T07:04:33.697Z,10.50
2023-05-21T07:05:33.748Z,10.20
2023-05-21T07:06:33.673Z,10.50
2023-05-21T07:07:33.702Z,9.80
2023-05-21T07:08:33.651Z,10.00
2023-05-21T07:09:33.664Z,10.10
2023-05-21T07:10:33.634Z,9.70
2023-05-21T07:11:33.660Z,9.10
2023-05-21T07:12:33.617Z,10.90
2023-05-21T07:13:33.636Z,9.80
2023-05-21T07:14:33.579Z,11.30
2023-05-21T07:15:33.659Z,13.00
2023-05-21T07:16:33.599Z,11.20
2023-05-21T07:17:33.618Z,9.10
2023-05-21T07:18:33.543Z,9.80
2023-05-21T07:19:33.606Z,11.70
2023-05-21T07:20:33.515Z,9.90
2023-05-21T07:21:33.550Z,9.20
2023-05-21T07:22:33.498Z,10.50
2023-05-21T07:23:33.515Z,9.20
2023-05-21T07:24:33.477Z,9.70
2023-05-21T07:25:33.512Z,8.60
2023-05-21T07:26:33.454Z,9.70
2023-05-21T07:27:33.466Z,10.10
2023-05-21T07:28:33.433Z,11.60
2023-05-21T07:29:33.441Z,10.20
2023-05-21T07:30:33.430Z,9.00
2023-05-21T07:31:33.494Z,10.50
2023-05-21T07:32:33.397Z,9.30
2023-05-21T07:33:33.427Z,8.20
2023-05-21T07:34:33.376Z,8.70
2023-05-21T07:35:33.375Z,10.30
2023-05-21T07:36:33.386Z,9.70
2023-05-21T07:37:33.385Z,8.20
2023-05-21T07:38:33.322Z,9.30
2023-05-21T07:39:33.326Z,10.20
2023-05-21T07:40:33.299Z,9.40
2023-05-21T07:41:33.451Z,11.50
2023-05-21T07:42:33.280Z,9.00
2023-05-21T07:43:33.280Z,11.40
2023-05-21T07:44:33.256Z,10.50
2023-05-21T07:45:33.262Z,10.10
2023-05-21T07:46:33.260Z,9.50
2023-05-21T07:47:33.275Z,8.10
2023-05-21T07:48:35.278Z,10.20
2023-05-21T07:49:33.227Z,10.60
2023-05-21T07:50:33.211Z,8.20
2023-05-21T07:51:33.212Z,9.50
2023-05-21T07:52:33.234Z,9.50
2023-05-21T07:53:33.183Z,11.10
2023-05-21T07:54:33.153Z,10.30
2023-05-21T07:55:33.159Z,10.20
2023-05-21T07:56:33.128Z,10.60
2023-05-21T07:57:33.152Z,8.30
2023-05-21T07:58:33.105Z,13.10
2023-05-21T07:59:33.110Z,7.90
2023-05-21T08:00:33.094Z,9.00
2023-05-21T08:01:33.103Z,8.20
2023-05-21T08:02:33.107Z,9.70
2023-05-21T08:03:33.303Z,9.80
2023-05-21T08:04:33.071Z,9.80
2023-05-21T08:05:33.067Z,9.80
2023-05-21T08:06:33.016Z,10.10
2023-05-21T08:07:33.047Z,9.40
2023-05-21T08:08:33.016Z,10.10
2023-05-21T08:09:33.010Z,9.70
2023-05-21T08:10:32.982Z,9.60
2023-05-21T08:11:33.016Z,9.20
2023-05-21T08:12:32.965Z,8.40
2023-05-21T08:13:32.995Z,12.00
2023-05-21T08:14:32.952Z,10.70
2023-05-21T08:15:32.953Z,9.70
2023-05-21T08:16:33.017Z,10.30
2023-05-21T08:17:32.958Z,9.50
2023-05-21T08:18:32.915Z,11.50
2023-05-21T08:19:32.922Z,10.40
2023-05-21T08:20:32.871Z,10.00
2023-05-21T08:21:32.909Z,8.20
2023-05-21T08:22:32.861Z,10.20
2023-05-21T08:23:32.916Z,8.80
2023-05-21T08:24:32.838Z,11.40
2023-05-21T08:25:32.854Z,8.40
2023-05-21T08:26:32.817Z,10.10
2023-05-21T08:27:32.843Z,10.60
2023-05-21T08:28:32.795Z,8.80
2023-05-21T08:29:32.828Z,9.80
2023-05-21T08:30:32.765Z,9.20
2023-05-21T08:31:32.806Z,10.60
2023-05-21T08:32:32.807Z,12.00
2023-05-21T08:33:32.769Z,12.50
2023-05-21T08:34:32.751Z,9.70
2023-05-21T08:35:32.745Z,9.90
2023-05-21T08:36:32.702Z,8.90
2023-05-21T08:37:32.712Z,9.60
2023-05-21T08:38:32.692Z,8.80
2023-05-21T08:39:32.714Z,8.20
2023-05-21T08:40:32.666Z,10.40
2023-05-21T08:41:32.677Z,9.70
2023-05-21T08:42:36.855Z,8.30
2023-05-21T08:43:32.668Z,10.40
2023-05-21T08:44:32.627Z,10.20
2023-05-21T08:45:32.659Z,7.70
2023-05-21T08:46:32.671Z,9.60
2023-05-21T08:47:32.636Z,11.80
2023-05-21T08:48:32.576Z,15.30
2023-05-21T08:49:32.592Z,10.60
2023-05-21T08:50:32.552Z,11.30
2023-05-21T08:51:32.592Z,10.40
2023-05-21T08:52:32.535Z,9.20
2023-05-21T08:53:32.542Z,8.40
2023-05-21T08:54:32.507Z,9.80
2023-05-21T08:55:32.541Z,10.10
2023-05-21T08:56:32.497Z,9.50
2023-05-21T08:57:32.487Z,10.30
2023-05-21T08:58:32.468Z,11.10
2023-05-21T08:59:32.467Z,9.50
2023-05-21T09:00:32.440Z,8.90
2023-05-21T09:01:32.495Z,9.50
2023-05-21T09:02:32.469Z,9.90
2023-05-21T09:03:32.497Z,8.50
2023-05-21T09:04:32.437Z,9.20
2023-05-21T09:05:32.416Z,9.30
2023-05-21T09:06:32.386Z,9.00
2023-05-21T09:07:32.391Z,10.30
2023-05-21T09:08:32.370Z,8.90
2023-05-21T09:09:32.371Z,10.20
2023-05-21T09:10:32.327Z,10.50
2023-05-21T09:11:32.334Z,10.00
2023-05-21T09:12:32.328Z,8.90
2023-05-21T09:13:32.310Z,9.50
2023-05-21T09:14:32.283Z,11.70
2023-05-21T09:15:32.291Z,12.20
2023-05-21T09:16:32.303Z,10.00
2023-05-21T09:17:32.295Z,9.10
2023-05-21T09:18:32.251Z,10.00
2023-05-21T09:19:32.559Z,10.00
2023-05-21T09:20:32.231Z,8.50
2023-05-21T09:21:32.288Z,9.10
2023-05-21T09:22:32.200Z,8.90
2023-05-21T09:23:32.237Z,10.80
2023-05-21T09:24:35.047Z,7.50
2023-05-21T09:25:32.222Z,9.40
2023-05-21T09:26:32.163Z,9.10
2023-05-21T09:27:32.176Z,8.20
2023-05-21T09:28:32.134Z,9.50
2023-05-21T09:29:32.147Z,9.10
2023-05-21T09:30:34.765Z,10.70
2023-05-21T09:31:32.200Z,8.70
2023-05-21T09:32:32.135Z,10.50
2023-05-21T09:33:32.132Z,9.30
2023-05-21T09:34:32.104Z,9.30
2023-05-21T09:35:32.113Z,10.00
2023-05-21T09:36:32.069Z,8.10
2023-05-21T09:37:32.055Z,7.30
2023-05-21T09:38:32.062Z,8.10
2023-05-21T09:39:32.078Z,8.50
2023-05-21T09:40:32.014Z,11.50
2023-05-21T09:41:32.030Z,11.20
2023-05-21T09:42:31.979Z,8.50
2023-05-21T09:43:31.995Z,8.00
2023-05-21T09:44:31.986Z,9.80
2023-05-21T09:45:31.992Z,9.30
2023-05-21T09:46:32.008Z,9.50
2023-05-21T09:47:31.993Z,10.20
2023-05-21T09:48:31.920Z,9.80
2023-05-21T09:49:31.930Z,7.70
2023-05-21T09:50:31.922Z,8.20
2023-05-21T09:51:31.933Z,8.60
2023-05-21T09:52:31.882Z,9.90
2023-05-21T09:53:31.908Z,9.40
2023-05-21T09:54:31.859Z,12.20
2023-05-21T09:55:31.887Z,9.90
2023-05-21T09:56:31.847Z,11.40
2023-05-21T09:57:31.871Z,18.40
2023-05-21T09:58:31.814Z,9.70
2023-05-21T09:59:31.853Z,14.10
2023-05-21T10:00:31.811Z,9.10
2023-05-21T10:01:31.838Z,11.70
2023-05-21T10:02:31.808Z,13.60
2023-05-21T10:03:31.814Z,18.20
2023-05-21T10:04:31.809Z,16.50
2023-05-21T10:05:31.773Z,85.60
2023-05-21T10:06:31.735Z,387.10
2023-05-21T10:07:31.754Z,56.50
2023-05-21T10:08:31.730Z,187.90
2023-05-21T10:09:31.732Z,28.20
2023-05-21T10:10:31.735Z,200.90
2023-05-21T10:11:31.691Z,514.70
2023-05-21T10:12:31.676Z,434.70
2023-05-21T10:13:31.695Z,138.20
2023-05-21T10:14:31.654Z,224.80
2023-05-21T10:15:31.664Z,133.10
2023-05-21T10:16:31.650Z,19.10
2023-05-21T10:17:31.708Z,19.80
2023-05-21T10:18:31.617Z,49.30
2023-05-21T10:19:31.697Z,27.40
2023-05-21T10:20:31.579Z,24.60
2023-05-21T10:21:31.578Z,12.40
2023-05-21T10:22:31.566Z,11.20
2023-05-21T10:23:31.605Z,12.00
2023-05-21T10:24:31.537Z,9.90
2023-05-21T10:25:31.574Z,10.60
2023-05-21T10:26:31.528Z,14.20
2023-05-21T10:27:32.465Z,11.80
2023-05-21T10:28:31.501Z,13.60
2023-05-21T10:29:31.543Z,10.80
2023-05-21T10:30:31.475Z,9.90
2023-05-21T10:31:31.486Z,11.90
2023-05-21T10:32:31.547Z,9.20
2023-05-21T10:33:31.505Z,10.40
2023-05-21T10:34:31.425Z,10.40
2023-05-21T10:35:31.453Z,9.60
2023-05-21T10:36:31.433Z,10.50
2023-05-21T10:37:31.450Z,9.40
2023-05-21T10:38:31.390Z,10.40
2023-05-21T10:39:31.419Z,12.20
2023-05-21T10:40:31.381Z,10.60
2023-05-21T10:41:31.387Z,34.90
2023-05-21T10:42:31.347Z,16.20
2023-05-21T10:43:31.383Z,157.90
2023-05-21T10:44:31.335Z,359.40
2023-05-21T10:45:31.378Z,307.50
2023-05-21T10:46:31.313Z,279.70
2023-05-21T10:47:31.324Z,559.20
2023-05-21T10:48:31.305Z,526.00
2023-05-21T10:49:31.325Z,348.20
2023-05-21T10:50:31.271Z,644.40
2023-05-21T10:51:31.290Z,389.90
2023-05-21T10:52:31.245Z,482.50
2023-05-21T10:53:31.248Z,611.80
2023-05-21T10:54:31.260Z,337.90
2023-05-21T10:55:31.227Z,187.50
2023-05-21T10:56:31.217Z,271.00
2023-05-21T10:57:31.217Z,154.10
2023-05-21T10:58:31.174Z,144.60
2023-05-21T10:59:31.208Z,55.20
2023-05-21T11:00:31.156Z,29.60
2023-05-21T11:01:31.206Z,11.70
2023-05-21T11:02:31.250Z,50.00
2023-05-21T11:03:31.778Z,33.60
2023-05-21T11:04:31.116Z,12.10
2023-05-21T11:05:31.143Z,10.30
2023-05-21T11:06:31.101Z,9.90
2023-05-21T11:07:31.121Z,11.30
2023-05-21T11:08:31.070Z,10.10
2023-05-21T11:09:31.160Z,11.10
2023-05-21T11:10:31.108Z,9.00
2023-05-21T11:11:31.076Z,8.70
2023-05-21T11:12:31.049Z,9.80
2023-05-21T11:13:31.034Z,11.70
2023-05-21T11:14:31.014Z,8.60
2023-05-21T11:15:31.044Z,9.90
2023-05-21T11:16:31.063Z,9.10
2023-05-21T11:17:31.028Z,9.40
2023-05-21T11:18:31.028Z,9.30
2023-05-21T11:19:33.326Z,10.10
2023-05-21T11:20:30.958Z,9.70
2023-05-21T11:21:30.962Z,8.50
2023-05-21T11:22:30.965Z,9.30
2023-05-21T11:23:30.918Z,10.50
2023-05-21T11:24:30.941Z,11.20
2023-05-21T11:25:30.891Z,21.80
2023-05-21T11:26:30.904Z,11.00
2023-05-21T11:27:30.877Z,10.70
2023-05-21T11:28:30.900Z,10.00
2023-05-21T11:29:30.863Z,12.40
2023-05-21T11:30:30.868Z,14.50
2023-05-21T11:31:30.867Z,11.90
2023-05-21T11:32:30.862Z,8.00
2023-05-21T11:33:30.819Z,8.70
2023-05-21T11:34:30.813Z,8.50
2023-05-21T11:35:30.796Z,10.40
2023-05-21T11:36:30.796Z,10.50
2023-05-21T11:37:30.798Z,7.60
2023-05-21T11:38:30.782Z,11.80
2023-05-21T11:39:30.773Z,10.80
2023-05-21T11:40:30.783Z,7.80
2023-05-21T11:41:30.723Z,11.40
2023-05-21T11:42:30.745Z,9.70
2023-05-21T11:43:30.702Z,12.70
2023-05-21T11:44:30.706Z,6.70
2023-05-21T11:45:30.698Z,11.00
2023-05-21T11:46:30.736Z,7.30
2023-05-21T11:47:30.716Z,9.70
2023-05-21T11:48:32.410Z,7.70
2023-05-21T11:49:30.648Z,8.10
2023-05-21T11:50:30.700Z,8.10
2023-05-21T11:51:30.618Z,7.40
2023-05-21T11:52:30.629Z,7.50
2023-05-21T11:53:30.609Z,7.80
2023-05-21T11:54:30.632Z,8.70
2023-05-21T11:55:30.589Z,8.20
2023-05-21T11:56:30.602Z,8.20
2023-05-21T11:57:30.568Z,10.40
2023-05-21T11:58:30.567Z,7.50
2023-05-21T11:59:30.539Z,7.50
2023-05-21T12:00:30.569Z,7.40
2023-05-21T12:01:30.513Z,8.40
2023-05-21T12:02:30.625Z,7.90
2023-05-21T12:03:30.786Z,7.70
2023-05-21T12:04:30.524Z,8.70
2023-05-21T12:05:30.501Z,9.50
2023-05-21T12:06:30.553Z,7.40
2023-05-21T12:07:30.458Z,8.30
2023-05-21T12:08:30.476Z,8.30
2023-05-21T12:09:30.431Z,8.30
2023-05-21T12:10:30.452Z,7.70
2023-05-21T12:11:30.418Z,8.60
2023-05-21T12:12:38.852Z,8.00
2023-05-21T12:13:30.412Z,6.80
2023-05-21T12:14:30.475Z,6.70
2023-05-21T12:15:30.384Z,7.60
2023-05-21T12:16:30.388Z,7.50
2023-05-21T12:17:30.359Z,6.10
2023-05-21T12:18:30.377Z,9.40
2023-05-21T12:19:30.444Z,10.90
2023-05-21T12:20:30.347Z,6.80
2023-05-21T12:21:30.302Z,7.30
2023-05-21T12:22:30.330Z,8.00
2023-05-21T12:23:30.285Z,7.00
2023-05-21T12:24:30.311Z,6.50
2023-05-21T12:25:30.263Z,8.60
2023-05-21T12:26:30.274Z,8.00
2023-05-21T12:27:30.242Z,7.20
2023-05-21T12:28:30.262Z,8.00
2023-05-21T12:29:30.222Z,8.60
2023-05-21T12:30:30.251Z,7.00
2023-05-21T12:31:30.227Z,8.10
2023-05-21T12:32:30.218Z,6.70
2023-05-21T12:33:30.186Z,8.80
2023-05-21T12:34:30.198Z,7.70
2023-05-21T12:35:30.216Z,8.70
2023-05-21T12:36:30.177Z,9.60
2023-05-21T12:37:30.142Z,8.40
2023-05-21T12:38:30.146Z,7.10
2023-05-21T12:39:30.124Z,6.80
2023-05-21T12:40:30.135Z,7.20
2023-05-21T12:41:30.115Z,10.30
2023-05-21T12:42:30.115Z,8.00
2023-05-21T12:43:30.079Z,8.10
2023-05-21T12:44:30.098Z,9.40
2023-05-21T12:45:30.072Z,8.10
2023-05-21T12:46:30.182Z,7.00
2023-05-21T12:47:30.073Z,6.90
2023-05-21T12:48:30.057Z,6.90
2023-05-21T12:49:30.013Z,6.90
2023-05-21T12:50:30.054Z,8.50
2023-05-21T12:51:29.996Z,6.50
2023-05-21T12:52:30.001Z,8.40
2023-05-21T12:53:29.976Z,8.70
2023-05-21T12:54:29.990Z,7.00
2023-05-21T12:55:29.979Z,7.20
2023-05-21T12:56:29.982Z,7.20
2023-05-21T12:57:29.939Z,7.60
2023-05-21T12:58:29.951Z,7.40
2023-05-21T12:59:29.959Z,9.30
2023-05-21T13:00:29.947Z,8.00
2023-05-21T13:01:29.931Z,6.90